Terminal Aerodrome Forecast
Issued by NWS St Louis, MO

Home | Current Version | Previous Version | Text Only | Print | Product List | Glossary On
Versions: 1 2 3 4 5 6 7 8 9 10 11 12 13 14 15
000
FTUS43 KLSX 272338
TAFCOU
TAF
KCOU 272338Z 2800/2824 12010KT 3SM -SHRA SCT010 OVC025
      TEMPO 2800/2802 1SM +TSRA BKN005 OVC010CB
     FM280300 16011KT P6SM BKN040
     FM280900 17009KT P6SM BKN020
     FM281300 18009KT P6SM BKN070=

USA.gov is the U.S. government's official web portal to all federal, state and local government web resources and services.